Time;durP1;ratioP1;P1;durP2;ratioP2;P2;SDS_P1;SDS_P2;PMS_P1;PMS_P2;Temp;Humidity;BMP_temperature;BMP_pressure;BME280_temperature;BME280_humidity;BME280_pressure;Samples;Min_cycle;Max_cycle;Signal;HPM_P1;HPM_P2
2022/05/08 00:00:47;;;;;;;15.82;10.15;;;;;;;13.85;68.53;100784.28;5074854;28;20048;-69
2022/05/08 00:03:31;;;;;;;14.88;10.65;;;;;;;13.85;68.64;100784.28;5075382;28;20051;-69
2022/05/08 00:06:17;;;;;;;16.25;10.95;;;;;;;13.86;68.54;100774.72;5059941;28;20454;-69
2022/05/08 00:09:02;;;;;;;15.23;11.50;;;;;;;13.87;68.58;100776.47;5074668;28;20070;-69
2022/05/08 00:11:46;;;;;;;14.00;10.73;;;;;;;13.87;68.54;100779.06;5074555;28;20051;-69
2022/05/08 00:14:30;;;;;;;17.30;12.25;;;;;;;13.85;68.78;100786.88;5059541;28;20082;-70
2022/05/08 00:17:14;;;;;;;16.15;11.55;;;;;;;13.86;68.68;100785.13;5059446;28;20043;-69
2022/05/08 00:19:58;;;;;;;14.38;11.38;;;;;;;13.86;68.90;100778.19;5074511;28;20048;-69
2022/05/08 00:22:43;;;;;;;13.13;10.15;;;;;;;13.86;68.46;100774.72;5059887;28;20043;-69
2022/05/08 00:25:28;;;;;;;16.33;12.15;;;;;;;13.86;68.56;100790.34;5059646;28;20514;-69
2022/05/08 00:28:12;;;;;;;16.42;12.43;;;;;;;13.86;68.64;100782.53;5058911;28;20079;-69
2022/05/08 00:30:56;;;;;;;19.45;12.25;;;;;;;13.86;68.63;100782.53;5074778;28;20114;-69
2022/05/08 00:35:35;;;;;;;19.15;14.35;;;;;;;13.85;68.56;100781.69;5132257;27;20151;-69
2022/05/08 00:38:22;;;;;;;14.70;11.60;;;;;;;13.85;68.75;100792.09;5131674;28;20530;-69
2022/05/08 00:41:07;;;;;;;18.25;14.43;;;;;;;13.86;68.66;100780.78;5131685;28;20135;-69
2022/05/08 00:43:51;;;;;;;19.50;14.27;;;;;;;13.86;68.81;100785.13;5116301;28;20418;-69
2022/05/08 00:46:35;;;;;;;;;;;;;;;13.84;68.54;100782.53;5131950;28;20047;-69
2022/05/08 00:49:19;;;;;;;16.27;12.23;;;;;;;13.84;68.70;100790.34;5116173;28;20400;-69
2022/05/08 00:52:05;;;;;;;26.65;18.42;;;;;;;13.84;68.38;100790.34;5131898;28;20559;-69
2022/05/08 00:54:49;;;;;;;25.05;16.10;;;;;;;13.84;68.78;100789.44;5115653;28;20516;-69
2022/05/08 00:57:35;;;;;;;;;;;;;;;13.83;68.69;100779.88;5131893;28;20041;-69
2022/05/08 01:00:19;;;;;;;14.90;11.57;;;;;;;13.81;68.67;100784.19;5115900;28;20435;-69
2022/05/08 01:03:03;;;;;;;19.92;13.73;;;;;;;13.82;68.68;100783.34;5115880;28;20046;-69
2022/05/08 01:05:50;;;;;;;17.65;13.95;;;;;;;13.81;69.00;100785.09;5131503;28;20047;-69
2022/05/08 01:08:36;;;;;;;18.75;15.18;;;;;;;13.81;68.85;100779.88;5115961;28;20109;-69
2022/05/08 01:11:20;;;;;;;23.15;15.50;;;;;;;13.83;68.93;100782.47;5115696;28;20456;-69
2022/05/08 01:14:04;;;;;;;17.83;15.25;;;;;;;13.83;68.94;100787.69;5131316;28;20401;-69
2022/05/08 01:16:48;;;;;;;18.00;14.30;;;;;;;13.81;69.03;100785.09;5131135;28;20092;-69
2022/05/08 01:19:32;;;;;;;20.67;15.95;;;;;;;13.80;68.89;100785.94;5131316;28;20455;-69
2022/05/08 01:22:15;;;;;;;22.52;16.08;;;;;;;13.81;69.01;100786.78;5131098;28;20397;-69
2022/05/08 01:25:00;;;;;;;26.77;17.52;;;;;;;13.80;69.03;100783.31;5115637;28;20055;-69
2022/05/08 01:27:45;;;;;;;20.10;15.55;;;;;;;13.80;68.97;100783.31;5115586;28;20043;-69
2022/05/08 01:30:29;;;;;;;;;;;;;;;13.79;68.99;100786.78;5115932;28;20558;-69
2022/05/08 01:33:14;;;;;;;21.55;16.17;;;;;;;13.78;69.12;100785.03;5130503;28;19919;-69
2022/05/08 01:36:01;;;;;;;21.45;15.73;;;;;;;13.79;68.93;100780.69;5114964;28;20046;-70
2022/05/08 01:38:45;;;;;;;25.02;15.30;;;;;;;13.80;69.36;100779.84;5130606;28;20046;-70
2022/05/08 01:41:29;;;;;;;21.10;15.52;;;;;;;13.80;69.27;100787.66;5130445;28;20069;-69
2022/05/08 01:44:15;;;;;;;24.98;18.38;;;;;;;13.79;69.20;100788.50;5130695;28;20043;-69
2022/05/08 01:50:03;;;;;;;20.70;15.48;;;;;;;13.79;69.19;100784.19;5117144;28;20058;-69
2022/05/08 01:52:47;;;;;;;21.60;15.60;;;;;;;13.80;69.15;100782.44;5116292;28;20054;-69
2022/05/08 01:55:31;;;;;;;21.67;16.63;;;;;;;13.79;69.15;100789.38;5116648;28;20050;-69
2022/05/08 01:58:17;;;;;;;;;;;;;;;13.78;69.15;100792.00;5101969;28;20152;-68
2022/05/08 02:01:04;;;;;;;22.42;16.08;;;;;;;13.77;69.57;100796.31;5101549;28;19934;-69
2022/05/08 02:03:48;;;;;;;23.05;16.33;;;;;;;13.77;69.25;100791.09;5101462;28;20113;-68
2022/05/08 02:06:32;;;;;;;20.83;15.38;;;;;;;13.78;69.42;100795.44;5101296;28;20124;-69
2022/05/08 02:09:18;;;;;;;22.90;16.30;;;;;;;13.78;69.36;100795.44;5101087;28;20050;-69
2022/05/08 02:12:02;;;;;;;19.17;14.73;;;;;;;13.78;69.35;100789.38;5130004;27;20047;-69
2022/05/08 02:14:49;;;;;;;;;;;;;;;13.76;69.31;100786.72;5101124;28;20051;-69
2022/05/08 02:17:33;;;;;;;20.25;15.35;;;;;;;13.75;69.37;100792.78;5101083;28;19922;-69
2022/05/08 02:20:17;;;;;;;23.38;15.32;;;;;;;13.76;69.46;100798.91;5129643;27;20051;-69
2022/05/08 02:23:02;;;;;;;22.10;16.90;;;;;;;13.75;69.47;100792.78;5116703;28;20097;-70
2022/05/08 02:25:46;;;;;;;19.27;14.77;;;;;;;13.75;69.58;100795.41;5115863;28;20113;-69
2022/05/08 02:28:31;;;;;;;19.23;15.73;;;;;;;13.75;69.46;100794.53;5116133;28;20092;-69
2022/05/08 02:31:15;;;;;;;18.77;15.18;;;;;;;13.74;69.35;100796.25;5115871;28;20038;-69
2022/05/08 02:33:59;;;;;;;22.58;16.08;;;;;;;13.74;69.78;100796.25;5100788;28;20097;-69
2022/05/08 02:39:03;;;;;;;22.38;14.25;;;;;;;13.75;69.57;100804.97;5131990;27;20539;-68
2022/05/08 02:41:47;;;;;;;18.30;14.15;;;;;;;13.74;69.77;100801.47;5116216;28;20096;-69
2022/05/08 02:44:34;;;;;;;20.83;14.50;;;;;;;13.73;69.59;100797.09;5131957;28;20069;-69
2022/05/08 02:47:18;;;;;;;18.40;14.25;;;;;;;13.74;69.79;100801.47;5116083;28;20123;-69
2022/05/08 02:50:04;;;;;;;17.40;14.40;;;;;;;13.75;69.55;100797.16;5131254;28;20065;-69
2022/05/08 02:52:49;;;;;;;16.75;13.48;;;;;;;13.72;69.38;100799.69;5116132;28;20045;-68
2022/05/08 02:58:36;;;;;;;17.88;13.95;;;;;;;13.72;69.82;100797.94;5131099;28;20051;-69
2022/05/08 03:01:20;;;;;;;19.70;15.00;;;;;;;13.69;69.62;100790.97;5115721;28;20046;-70
2022/05/08 03:04:04;;;;;;;20.23;13.90;;;;;;;13.70;69.71;100797.94;5131620;28;20042;-69
2022/05/08 03:06:48;;;;;;;21.13;12.98;;;;;;;13.69;69.66;100795.31;5131179;28;20187;-70
2022/05/08 03:09:32;;;;;;;15.25;12.15;;;;;;;13.69;69.46;100801.41;5116194;28;20058;-69
2022/05/08 03:12:16;;;;;;;15.15;12.80;;;;;;;13.69;69.54;100804.00;5130883;28;20496;-69
2022/05/08 03:15:00;;;;;;;17.10;12.73;;;;;;;13.67;69.97;100800.50;5116014;28;20088;-69
2022/05/08 03:17:44;;;;;;;15.55;13.20;;;;;;;13.68;69.53;100807.47;5130990;28;20513;-69
2022/05/08 03:20:29;;;;;;;15.18;12.15;;;;;;;13.68;69.82;100804.00;5115716;28;20053;-69
2022/05/08 03:23:14;;;;;;;17.13;12.40;;;;;;;13.67;69.71;100810.06;5115668;28;20126;-70
2022/05/08 03:25:58;;;;;;;15.35;12.40;;;;;;;13.67;69.63;100803.09;5115643;28;20108;-69
2022/05/08 03:28:43;;;;;;;12.75;10.55;;;;;;;13.67;69.63;100807.44;5115516;28;20061;-69
2022/05/08 03:31:27;;;;;;;13.82;11.15;;;;;;;13.66;69.81;100818.72;5130969;28;20093;-69
2022/05/08 03:34:11;;;;;;;13.90;12.40;;;;;;;13.63;69.79;100816.91;5130447;28;20066;-70
2022/05/08 03:36:54;;;;;;;14.10;11.13;;;;;;;13.64;69.61;100820.41;5130964;28;20506;-69
2022/05/08 03:39:38;;;;;;;14.98;11.70;;;;;;;13.63;69.61;100816.91;5115481;28;20053;-69
2022/05/08 03:42:22;;;;;;;14.73;10.65;;;;;;;13.61;69.69;100813.44;5131009;28;20096;-69
2022/05/08 03:45:09;;;;;;;12.45;10.15;;;;;;;13.61;69.75;100815.16;5130643;28;20576;-69
2022/05/08 03:47:53;;;;;;;14.93;10.70;;;;;;;13.61;69.82;100813.44;5115314;28;20050;-69
2022/05/08 03:50:37;;;;;;;13.10;9.95;;;;;;;13.60;69.66;100814.28;5116158;28;20046;-69
2022/05/08 03:53:25;;;;;;;13.05;9.65;;;;;;;13.59;69.77;100814.25;5116748;28;20414;-69
2022/05/08 03:56:11;;;;;;;12.00;9.45;;;;;;;13.58;69.67;100826.41;5101372;28;20078;-69
2022/05/08 03:58:55;;;;;;;11.68;8.85;;;;;;;13.58;69.95;100818.59;5100714;28;20058;-69
2022/05/08 04:01:42;;;;;;;13.75;10.18;;;;;;;13.58;69.74;100821.19;5101442;28;20513;-69
2022/05/08 04:04:26;;;;;;;12.23;9.95;;;;;;;13.58;69.93;100817.69;5101329;28;20050;-69
2022/05/08 04:07:10;;;;;;;14.48;9.95;;;;;;;13.57;69.94;100821.16;5116399;28;20113;-69
2022/05/08 04:09:53;;;;;;;11.55;8.35;;;;;;;13.54;69.63;100817.69;5101098;28;20100;-69
2022/05/08 04:12:37;;;;;;;10.77;8.77;;;;;;;13.54;69.90;100819.38;5101118;28;20513;-68
2022/05/08 04:18:24;;;;;;;12.93;8.30;;;;;;;13.52;69.84;100813.28;5116037;28;20046;-70
2022/05/08 04:21:08;;;;;;;12.38;9.18;;;;;;;13.51;69.94;100828.03;5101262;28;20131;-69
2022/05/08 04:26:55;;;;;;;10.65;8.48;;;;;;;13.50;69.71;100817.56;5116131;28;20090;-69
2022/05/08 04:29:39;;;;;;;10.40;7.75;;;;;;;13.50;69.90;100817.56;5116381;28;20128;-69
2022/05/08 04:32:22;;;;;;;9.75;7.85;;;;;;;13.50;69.94;100818.47;5116099;28;20552;-69
2022/05/08 04:35:07;;;;;;;11.90;8.85;;;;;;;13.50;69.87;100830.59;5115773;28;20527;-68
2022/05/08 04:37:50;;;;;;;;;;;;;;;13.48;69.76;100833.19;5115948;28;20121;-69
2022/05/08 04:40:35;;;;;;;12.55;8.07;;;;;;;13.47;69.74;100835.78;5116239;28;19922;-69
2022/05/08 04:43:19;;;;;;;14.00;9.40;;;;;;;13.46;69.97;100836.63;5115658;28;20078;-69
2022/05/08 04:46:03;;;;;;;12.10;9.23;;;;;;;13.46;69.72;100836.63;5100506;28;20508;-69
2022/05/08 04:48:47;;;;;;;;;;;;;;;13.44;69.86;100835.72;5115968;28;20045;-69
2022/05/08 04:51:34;;;;;;;11.55;8.07;;;;;;;13.44;69.95;100838.31;5100392;28;19958;-70
2022/05/08 04:54:18;;;;;;;11.73;8.93;;;;;;;13.44;70.04;100836.59;5100379;28;20132;-69
2022/05/08 04:57:05;;;;;;;13.45;8.68;;;;;;;13.43;70.02;100841.78;5115402;28;20038;-69
2022/05/08 04:59:49;;;;;;;12.13;8.70;;;;;;;13.43;69.82;100842.63;5099997;28;20509;-69
2022/05/08 05:02:33;;;;;;;9.60;8.15;;;;;;;13.44;69.70;100846.13;5115569;28;20046;-69
2022/05/08 05:05:17;;;;;;;;;;;;;;;13.44;69.85;100840.94;5100786;28;20046;-69
2022/05/08 05:08:01;;;;;;;11.98;8.05;;;;;;;13.44;69.84;100854.81;5099980;28;19962;-69
2022/05/08 05:10:45;;;;;;;9.63;8.18;;;;;;;13.45;69.83;100853.09;5115216;28;20113;-69
2022/05/08 05:13:29;;;;;;;11.05;7.43;;;;;;;13.44;69.95;100852.22;5115170;28;20046;-69
2022/05/08 05:16:13;;;;;;;11.45;8.25;;;;;;;13.44;70.01;100846.13;5115268;28;20077;-69
2022/05/08 05:18:59;;;;;;;9.07;7.38;;;;;;;13.45;70.01;100850.50;5099460;28;20045;-69
2022/05/08 05:21:46;;;;;;;13.98;8.38;;;;;;;13.46;69.66;100849.66;5100032;28;20517;-69
2022/05/08 05:24:30;;;;;;;11.30;8.50;;;;;;;13.46;69.90;100862.66;5115543;28;20050;-69
2022/05/08 05:27:14;;;;;;;12.57;9.60;;;;;;;13.45;70.08;100861.78;5099483;28;20046;-69
2022/05/08 05:30:03;;;;;;;11.25;8.75;;;;;;;13.44;70.04;100864.38;5114762;28;20105;-69
2022/05/08 05:32:47;;;;;;;11.50;8.93;;;;;;;13.45;69.79;100866.13;5114494;28;20046;-69
2022/05/08 05:35:31;;;;;;;;;;;;;;;13.43;70.04;100875.63;5114826;28;20050;-69
2022/05/08 05:38:15;;;;;;;14.95;8.77;;;;;;;13.42;69.97;100874.72;5114361;28;19978;-68
2022/05/08 05:41:02;;;;;;;10.82;8.30;;;;;;;13.43;70.10;100876.50;5099252;28;20406;-69
2022/05/08 05:43:46;;;;;;;13.30;9.77;;;;;;;13.44;70.01;100875.63;5114777;28;20058;-69
2022/05/08 05:49:33;;;;;;;21.13;10.18;;;;;;;13.44;69.83;100880.84;5114189;28;20045;-69
2022/05/08 05:52:17;;;;;;;11.63;9.40;;;;;;;13.44;70.14;100891.25;5099245;28;20049;-69
2022/05/08 05:55:07;;;;;;;13.52;10.27;;;;;;;13.42;70.13;100887.75;5114587;28;20057;-68
2022/05/08 05:57:51;;;;;;;17.95;10.75;;;;;;;13.43;70.04;100892.13;5099250;28;20089;-69
2022/05/08 06:00:35;;;;;;;16.08;9.68;;;;;;;13.43;69.90;100891.25;5114372;28;20051;-69
2022/05/08 06:03:19;;;;;;;13.02;9.27;;;;;;;13.42;70.04;100897.31;5114781;28;20041;-69
2022/05/08 06:06:06;;;;;;;14.05;10.20;;;;;;;13.42;69.74;100894.69;5098706;28;20085;-69
2022/05/08 06:08:52;;;;;;;14.07;10.60;;;;;;;13.42;70.05;100898.16;5098887;28;20097;-69
2022/05/08 06:11:37;;;;;;;15.60;11.05;;;;;;;13.42;70.12;100905.97;5113734;28;20406;-69
2022/05/08 06:14:21;;;;;;;18.38;11.57;;;;;;;13.41;70.08;100909.44;5098786;28;20410;-69
2022/05/08 06:17:05;;;;;;;16.17;11.98;;;;;;;13.42;69.91;100912.94;5113644;28;20082;-68
2022/05/08 06:19:49;;;;;;;17.17;12.00;;;;;;;13.40;70.11;100916.38;5099039;28;20050;-69
2022/05/08 06:22:33;;;;;;;;;;;;;;;13.38;69.91;100912.84;5099213;28;20521;-69
2022/05/08 06:25:20;;;;;;;15.20;11.87;;;;;;;13.38;69.88;100915.44;5114333;28;19972;-69
2022/05/08 06:28:04;;;;;;;17.98;12.45;;;;;;;13.38;70.04;100918.03;5098905;28;20069;-69
2022/05/08 06:30:48;;;;;;;22.35;14.55;;;;;;;13.36;69.96;100924.94;5098164;28;20086;-69
2022/05/08 06:33:32;;;;;;;;;;;;;;;13.35;70.03;100923.19;5114682;28;20061;-71
2022/05/08 06:36:19;;;;;;;22.15;14.68;;;;;;;13.34;70.27;100924.03;5113476;28;19954;-69
2022/05/08 06:39:03;;;;;;;21.80;14.85;;;;;;;13.34;70.21;100925.78;5113811;28;20046;-69
2022/05/08 06:41:48;;;;;;;22.55;15.50;;;;;;;13.34;70.33;100929.25;5113704;28;20047;-70
2022/05/08 06:44:31;;;;;;;;;;;;;;;13.33;69.93;100932.69;5114063;28;20103;-69
2022/05/08 06:47:18;;;;;;;22.92;15.40;;;;;;;13.33;70.21;100937.88;5098404;28;19960;-69
2022/05/08 06:50:02;;;;;;;28.92;16.15;;;;;;;13.33;70.23;100940.50;5098170;28;20134;-69
2022/05/08 06:52:49;;;;;;;;;;;;;;;13.33;70.10;100944.84;5098796;28;20039;-69
2022/05/08 06:55:40;;;;;;;21.10;15.88;;;;;;;13.34;70.50;100939.66;5113949;28;19918;-69
2022/05/08 06:58:25;;;;;;;23.65;15.77;;;;;;;13.33;70.05;100943.09;5113260;28;20051;-69
2022/05/08 07:04:15;;;;;;;24.75;17.15;;;;;;;13.32;69.91;100938.75;5113336;28;20055;-69
2022/05/08 07:06:58;;;;;;;22.88;17.02;;;;;;;13.34;70.09;100946.59;5098081;28;20164;-69
2022/05/08 07:09:42;;;;;;;25.70;17.27;;;;;;;13.32;69.97;100941.34;5098064;28;20042;-69
2022/05/08 07:12:26;;;;;;;25.77;18.42;;;;;;;13.32;70.15;100945.69;5098122;28;20541;-69
2022/05/08 07:15:10;;;;;;;25.45;18.38;;;;;;;13.32;70.24;100948.28;5113507;28;20074;-69
2022/05/08 07:17:57;;;;;;;26.38;19.95;;;;;;;13.32;69.97;100948.28;5113375;28;20046;-69
2022/05/08 07:20:44;;;;;;;27.10;18.48;;;;;;;13.32;70.19;100950.91;5113761;28;20124;-69
2022/05/08 07:23:34;;;;;;;27.67;20.10;;;;;;;13.30;70.23;100958.69;5113505;28;20050;-69
2022/05/08 07:26:19;;;;;;;28.25;18.80;;;;;;;13.30;70.25;100963.91;5116892;28;20549;-69
2022/05/08 07:29:04;;;;;;;24.02;18.25;;;;;;;13.32;69.80;100967.38;5117118;28;20046;-68
2022/05/08 07:31:48;;;;;;;25.88;19.33;;;;;;;13.30;69.84;100969.09;5102007;28;20050;-69
2022/05/08 07:37:35;;;;;;;27.05;19.30;;;;;;;13.30;69.84;100971.69;5116953;28;20128;-69
2022/05/08 07:40:19;;;;;;;29.50;21.25;;;;;;;13.30;70.36;100973.41;5101945;28;20161;-69
2022/05/08 07:43:03;;;;;;;28.52;20.58;;;;;;;13.29;70.22;100977.75;5101525;28;20051;-70
2022/05/08 07:45:47;;;;;;;;;;;;;;;13.28;70.23;100977.72;5102084;28;20136;-69
2022/05/08 07:48:31;;;;;;;27.17;20.15;;;;;;;13.29;70.04;100982.06;5116836;28;20014;-69
2022/05/08 07:51:15;;;;;;;33.08;23.17;;;;;;;13.30;70.09;100973.41;5101313;28;20464;-69
2022/05/08 07:53:59;;;;;;;30.48;22.13;;;;;;;13.30;69.79;100989.03;5116867;28;20119;-69
2022/05/08 07:56:44;;;;;;;29.77;23.27;;;;;;;13.28;70.16;100985.50;5116902;28;20120;-69
2022/05/08 07:59:30;;;;;;;;;;;;;;;13.27;70.11;100991.56;5117437;28;20054;-69
2022/05/08 08:02:14;;;;;;;38.40;25.00;;;;;;;13.27;70.06;100999.38;5101425;28;19923;-69
2022/05/08 08:05:01;;;;;;;35.13;24.50;;;;;;;13.25;70.22;100997.63;5101408;28;20051;-69
2022/05/08 08:07:50;;;;;;;35.33;24.50;;;;;;;13.26;70.29;100990.72;5100916;28;20117;-68
2022/05/08 08:10:35;;;;;;;35.90;26.02;;;;;;;13.26;70.12;100998.50;5116065;28;20050;-69
2022/05/08 08:13:20;;;;;;;38.42;26.70;;;;;;;13.25;70.16;100996.75;5116153;28;20513;-69
2022/05/08 08:16:04;;;;;;;36.25;26.50;;;;;;;13.26;70.14;100993.31;5100723;28;20046;-68
2022/05/08 08:18:49;;;;;;;;;;;;;;;13.26;69.91;100993.31;5116486;28;20050;-69
2022/05/08 08:21:35;;;;;;;41.67;26.92;;;;;;;13.24;70.14;101001.06;5100733;28;19950;-70
2022/05/08 08:24:19;;;;;;;37.92;25.90;;;;;;;13.25;70.23;100996.75;5116345;28;20390;-69
2022/05/08 08:27:07;;;;;;;35.75;26.85;;;;;;;13.27;70.05;100999.38;5100802;28;20047;-70
2022/05/08 08:29:51;;;;;;;37.88;27.65;;;;;;;13.27;69.90;100996.78;5116096;28;20067;-68
2022/05/08 08:32:35;;;;;;;;;;;;;;;13.27;69.97;101001.97;5100911;28;20096;-69
2022/05/08 08:35:19;;;;;;;36.92;27.15;;;;;;;13.26;70.34;101001.13;5115484;28;19969;-70
2022/05/08 08:38:09;;;;;;;40.50;28.15;;;;;;;13.27;70.20;101000.28;5115873;28;20077;-69
2022/05/08 08:41:02;;;;;;;42.45;30.48;;;;;;;13.25;69.86;100999.34;5100333;28;20062;-69
2022/05/08 08:50:05;;;;;;;37.83;29.15;;;;;;;13.28;70.32;101016.75;5115792;28;20475;-68
2022/05/08 08:52:50;;;;;;;40.08;30.73;;;;;;;13.27;70.07;101020.19;5115653;28;20138;-69
2022/05/08 08:55:34;;;;;;;40.20;29.15;;;;;;;13.26;69.84;101011.53;5100136;28;20407;-69
2022/05/08 08:58:19;;;;;;;;;;;;;;;13.25;70.10;101021.03;5100598;28;20123;-69
2022/05/08 09:01:04;;;;;;;37.08;28.38;;;;;;;13.26;69.97;101021.94;5115244;28;19922;-69
2022/05/08 09:03:48;;;;;;;37.50;29.58;;;;;;;13.27;70.10;101021.09;5115433;28;20051;-69
2022/05/08 09:06:42;;;;;;;40.13;31.38;;;;;;;13.26;69.81;101019.34;5100493;28;20173;-69
2022/05/08 09:09:31;;;;;;;42.65;31.70;;;;;;;13.26;69.92;101019.34;5099918;28;20101;-69
2022/05/08 09:12:16;;;;;;;42.15;30.25;;;;;;;13.27;69.83;101017.59;5099713;28;20078;-69
2022/05/08 09:15:17;;;;;;;42.70;31.83;;;;;;;13.30;69.95;101022.88;5115048;28;20112;-69
2022/05/08 09:18:12;;;;;;;36.38;29.80;;;;;;;13.30;70.03;101026.38;5114963;28;20066;-68
2022/05/08 09:21:54;;;;;;;41.55;32.35;;;;;;;13.31;70.23;101014.22;5115128;28;20051;-69
2022/05/08 09:24:08;;;;;;;40.88;31.75;;;;;;;13.31;70.03;101024.63;5114944;28;20058;-69
2022/05/08 09:27:17;;;;;;;39.03;29.65;;;;;;;13.31;69.93;101016.81;5099525;28;20100;-69
2022/05/08 09:30:11;;;;;;;36.22;29.20;;;;;;;13.33;70.01;101023.81;5099919;28;20069;-69
2022/05/08 09:32:58;;;;;;;38.60;29.58;;;;;;;13.34;70.10;101016.91;5099470;28;20588;-69
2022/05/08 09:35:45;;;;;;;38.50;28.25;;;;;;;13.35;69.96;101014.31;5114672;28;20164;-69
2022/05/08 09:38:51;;;;;;;39.20;29.55;;;;;;;13.35;70.15;101018.66;5099186;28;20410;-69
2022/05/08 09:41:38;;;;;;;40.92;30.77;;;;;;;13.35;69.75;101019.50;5099158;28;20505;-69
2022/05/08 09:44:22;;;;;;;38.88;30.75;;;;;;;13.37;69.93;101015.22;5099603;28;20089;-69
2022/05/08 09:47:06;;;;;;;36.42;29.08;;;;;;;13.39;69.94;101015.28;5114069;28;20042;-69
2022/05/08 09:49:50;;;;;;;37.72;29.35;;;;;;;13.43;69.97;101016.22;5114524;28;20437;-69
2022/05/08 09:52:39;;;;;;;36.70;29.25;;;;;;;13.44;69.94;101012.78;5114933;28;20089;-69
2022/05/08 09:55:23;;;;;;;37.47;30.77;;;;;;;13.44;70.09;101011.03;5099398;28;20081;-69
2022/05/08 09:58:07;;;;;;;35.20;28.95;;;;;;;13.45;69.70;101020.63;5114504;28;20057;-69
2022/05/08 10:00:55;;;;;;;36.35;28.80;;;;;;;13.45;69.85;101019.75;5098576;28;20050;-69
2022/05/08 10:03:39;;;;;;;35.58;28.73;;;;;;;13.45;69.69;101007.59;5099129;28;20092;-69
2022/05/08 10:06:24;;;;;;;;;;;;;;;13.46;69.99;101011.09;5114837;28;20135;-69
2022/05/08 10:15:33;;;;;;;32.35;25.30;;;;;;;13.49;69.80;101005.91;5113704;28;20054;-69
2022/05/08 10:18:31;;;;;;;31.92;23.17;;;;;;;13.49;69.69;100998.09;5098217;28;20074;-69
2022/05/08 10:21:16;;;;;;;32.40;26.83;;;;;;;13.49;69.67;101000.72;5114181;28;20120;-69
2022/05/08 10:24:00;;;;;;;31.55;23.90;;;;;;;13.52;69.57;101000.78;5114458;28;20047;-69
2022/05/08 10:27:11;;;;;;;34.92;26.80;;;;;;;13.51;69.75;101006.84;5114042;28;20047;-70
2022/05/08 10:29:55;;;;;;;34.88;24.38;;;;;;;13.56;69.80;101000.00;5113765;28;20086;-69
2022/05/08 10:32:46;;;;;;;30.23;24.48;;;;;;;13.59;69.66;101001.78;5113900;28;20078;-69
2022/05/08 10:35:31;;;;;;;27.27;23.20;;;;;;;13.60;69.93;100998.31;5113647;28;20042;-69
2022/05/08 10:38:16;;;;;;;33.58;21.08;;;;;;;13.62;69.68;100991.41;5098168;28;20058;-70
2022/05/08 10:41:00;;;;;;;24.00;18.63;;;;;;;13.65;69.65;100992.34;5113436;28;20051;-69
2022/05/08 10:43:44;;;;;;;25.27;19.70;;;;;;;13.67;69.71;100990.66;5113718;28;20046;-69
2022/05/08 10:46:28;;;;;;;24.48;19.77;;;;;;;13.69;69.55;100985.47;5098584;28;20039;-68
2022/05/08 10:49:12;;;;;;;23.40;19.95;;;;;;;13.71;69.33;100994.19;5113663;28;20054;-69
2022/05/08 10:52:06;;;;;;;26.90;18.73;;;;;;;13.67;69.24;100985.44;5114014;28;20179;-69
2022/05/08 10:54:56;;;;;;;24.98;16.83;;;;;;;13.70;69.37;100985.50;5098654;28;20047;-70
2022/05/08 10:57:43;;;;;;;29.80;18.63;;;;;;;13.72;69.42;100987.25;5098374;28;20058;-70
2022/05/08 11:00:29;;;;;;;21.42;14.73;;;;;;;13.75;69.51;100980.38;5102022;28;20103;-69
2022/05/08 11:03:20;;;;;;;21.08;17.10;;;;;;;13.75;69.52;100988.19;5102762;28;20088;-69
2022/05/08 11:06:06;;;;;;;24.65;16.55;;;;;;;13.77;69.36;100975.19;5117948;28;20043;-69
2022/05/08 11:08:59;;;;;;;22.17;15.07;;;;;;;13.78;69.24;100979.56;5102656;28;20058;-69
2022/05/08 11:11:46;;;;;;;22.23;15.65;;;;;;;13.77;69.30;100985.63;5117684;28;20456;-69
2022/05/08 11:14:30;;;;;;;23.35;16.65;;;;;;;13.76;69.35;100979.50;5102356;28;20484;-69
2022/05/08 11:17:20;;;;;;;21.05;15.25;;;;;;;13.77;69.38;100981.28;5117190;28;20065;-70
2022/05/08 11:20:04;;;;;;;19.08;13.93;;;;;;;13.82;69.23;100973.53;5117548;28;20502;-69
2022/05/08 11:22:56;;;;;;;18.67;14.02;;;;;;;13.81;69.37;100980.47;5117447;28;20047;-69
2022/05/08 11:25:45;;;;;;;20.40;15.23;;;;;;;13.81;69.28;100974.38;5101838;28;20459;-69
2022/05/08 11:28:30;;;;;;;18.13;12.85;;;;;;;13.80;69.26;100978.72;5101693;28;20426;-69
2022/05/08 11:31:19;;;;;;;21.63;14.07;;;;;;;13.81;69.00;100974.38;5117058;28;20047;-69
2022/05/08 11:37:19;;;;;;;15.18;9.98;;;;;;;13.86;68.73;100970.13;5116623;28;20573;-70
2022/05/08 11:40:04;;;;;;;13.13;9.00;;;;;;;13.85;68.68;100974.50;5117271;28;20050;-69
2022/05/08 11:42:49;;;;;;;13.30;8.38;;;;;;;13.85;68.67;100971.88;5101502;28;20181;-69
2022/05/08 11:45:33;;;;;;;;;;;;;;;13.85;68.56;100970.97;5102350;28;20054;-69
2022/05/08 11:48:17;;;;;;;16.75;8.15;;;;;;;13.83;68.28;100968.38;5101536;28;20396;-69
2022/05/08 11:51:00;;;;;;;14.38;8.18;;;;;;;13.84;68.48;100958.81;5116495;28;20046;-70
2022/05/08 11:53:50;;;;;;;13.95;9.05;;;;;;;13.84;68.64;100970.13;5117234;28;20643;-69
2022/05/08 11:56:35;;;;;;;11.75;7.80;;;;;;;13.85;68.43;100956.25;5117043;28;20101;-70
2022/05/08 11:59:23;;;;;;;14.68;7.00;;;;;;;13.86;68.33;100951.91;5116428;28;20042;-70
2022/05/08 12:02:08;;;;;;;11.80;8.75;;;;;;;13.85;68.38;100951.03;5116585;28;20074;-70
2022/05/08 12:04:59;;;;;;;12.85;7.80;;;;;;;13.85;68.24;100947.53;5101345;28;20096;-69
2022/05/08 12:07:45;;;;;;;11.70;7.70;;;;;;;13.83;68.40;100946.63;5116707;28;20525;-70
2022/05/08 12:10:37;;;;;;;11.40;6.25;;;;;;;13.84;68.31;100944.06;5115846;28;20097;-70
2022/05/08 12:13:22;;;;;;;11.57;7.32;;;;;;;13.84;68.28;100938.84;5100988;28;20460;-69
2022/05/08 12:16:16;;;;;;;10.75;7.38;;;;;;;13.86;68.05;100939.72;5101325;28;20050;-69
2022/05/08 12:19:13;;;;;;;9.32;5.80;;;;;;;13.87;67.68;100930.19;5116145;28;20050;-69
2022/05/08 12:21:57;;;;;;;14.45;6.07;;;;;;;13.89;68.03;100928.50;5116028;28;20084;-70
2022/05/08 12:24:41;;;;;;;8.63;5.90;;;;;;;13.87;67.94;100935.41;5116347;28;20050;-69
2022/05/08 12:27:25;;;;;;;8.40;6.00;;;;;;;13.87;67.93;100930.19;5116076;28;20463;-70
2022/05/08 12:30:10;;;;;;;;;;;;;;;13.86;67.94;100931.06;5101292;28;20567;-70
2022/05/08 12:32:54;;;;;;;13.45;5.95;;;;;;;13.85;68.00;100930.19;5100566;28;20381;-69
2022/05/08 12:35:38;;;;;;;;;;;;;;;13.84;68.05;100928.44;5101134;28;20128;-69
2022/05/08 12:38:22;;;;;;;8.77;5.82;;;;;;;13.85;68.19;100922.38;5100256;28;19940;-70
2022/05/08 12:41:06;;;;;;;9.05;5.40;;;;;;;13.89;67.93;100923.28;5115532;28;20054;-69
2022/05/08 12:43:50;;;;;;;8.60;4.82;;;;;;;13.89;67.89;100923.28;5116189;28;20047;-69
2022/05/08 12:46:35;;;;;;;7.68;4.13;;;;;;;13.92;67.52;100927.66;5115609;28;20074;-70
2022/05/08 12:49:19;;;;;;;7.05;4.82;;;;;;;13.91;67.98;100924.19;5100223;28;20093;-68
2022/05/08 12:52:04;;;;;;;9.65;4.28;;;;;;;13.92;67.93;100923.34;5115797;28;20144;-70
2022/05/08 12:54:49;;;;;;;10.85;4.20;;;;;;;13.94;67.78;100924.22;5100314;28;20042;-69
2022/05/08 13:00:35;;;;;;;6.72;4.70;;;;;;;13.96;67.74;100924.25;5115373;28;20046;-69
2022/05/08 13:03:19;;;;;;;8.38;4.45;;;;;;;13.96;67.47;100919.91;5099929;28;20069;-70
2022/05/08 13:06:06;;;;;;;7.38;4.72;;;;;;;13.96;67.42;100913.84;5100437;28;20082;-69
2022/05/08 13:08:50;;;;;;;10.18;3.88;;;;;;;13.96;67.53;100919.06;5099483;28;20058;-69
2022/05/08 13:11:38;;;;;;;8.40;4.03;;;;;;;13.95;67.48;100918.16;5115360;28;20108;-69
2022/05/08 13:14:22;;;;;;;8.25;4.00;;;;;;;13.94;67.50;100911.19;5099909;28;20054;-69
2022/05/08 13:17:07;;;;;;;14.10;3.78;;;;;;;13.95;67.44;100906.88;5128962;27;20078;-69
2022/05/08 13:19:51;;;;;;;5.47;3.35;;;;;;;13.96;67.52;100909.50;5129108;27;20057;-69
2022/05/08 13:22:40;;;;;;;7.82;3.88;;;;;;;13.97;67.53;100911.25;5099107;28;20049;-69
2022/05/08 13:25:24;;;;;;;9.32;4.45;;;;;;;13.97;67.90;100900.81;5115111;28;20081;-70
2022/05/08 13:28:08;;;;;;;6.72;3.47;;;;;;;13.96;67.46;100898.22;5115076;28;20117;-70